sensor_id;sensor_type;location;lat;lon;timestamp;temperature;humidity
44271;DHT22;29963;44.594;11.368;2023-06-22T00:02:16;27.20;98.50
44271;DHT22;29963;44.594;11.368;2023-06-22T00:04:43;27.10;98.70
44271;DHT22;29963;44.594;11.368;2023-06-22T00:07:08;27.00;99.30
44271;DHT22;29963;44.594;11.368;2023-06-22T00:09:34;26.90;99.60
44271;DHT22;29963;44.594;11.368;2023-06-22T00:12:00;26.90;99.70
44271;DHT22;29963;44.594;11.368;2023-06-22T00:14:26;26.90;99.90
44271;DHT22;29963;44.594;11.368;2023-06-22T00:16:51;27.00;99.80
44271;DHT22;29963;44.594;11.368;2023-06-22T00:19:23;27.10;99.70
44271;DHT22;29963;44.594;11.368;2023-06-22T00:21:49;27.30;99.60
44271;DHT22;29963;44.594;11.368;2023-06-22T00:24:19;27.40;99.40
44271;DHT22;29963;44.594;11.368;2023-06-22T00:26:45;27.60;99.20
44271;DHT22;29963;44.594;11.368;2023-06-22T00:29:11;27.70;98.60
44271;DHT22;29963;44.594;11.368;2023-06-22T00:31:36;27.80;98.40
44271;DHT22;29963;44.594;11.368;2023-06-22T00:34:02;27.80;98.40
44271;DHT22;29963;44.594;11.368;2023-06-22T00:36:27;27.80;98.10
44271;DHT22;29963;44.594;11.368;2023-06-22T00:38:53;27.50;98.40
44271;DHT22;29963;44.594;11.368;2023-06-22T00:41:19;27.50;98.70
44271;DHT22;29963;44.594;11.368;2023-06-22T00:43:45;27.40;98.60
44271;DHT22;29963;44.594;11.368;2023-06-22T00:46:11;27.30;98.60
44271;DHT22;29963;44.594;11.368;2023-06-22T00:48:37;27.30;98.90
44271;DHT22;29963;44.594;11.368;2023-06-22T00:51:03;27.30;99.00
44271;DHT22;29963;44.594;11.368;2023-06-22T00:53:28;27.40;99.20
44271;DHT22;29963;44.594;11.368;2023-06-22T00:55:55;27.50;99.00
44271;DHT22;29963;44.594;11.368;2023-06-22T00:58:21;27.50;98.80
44271;DHT22;29963;44.594;11.368;2023-06-22T01:00:48;27.60;98.80
44271;DHT22;29963;44.594;11.368;2023-06-22T01:03:14;27.60;98.70
44271;DHT22;29963;44.594;11.368;2023-06-22T01:05:40;27.70;98.60
44271;DHT22;29963;44.594;11.368;2023-06-22T01:08:08;27.70;98.30
44271;DHT22;29963;44.594;11.368;2023-06-22T01:10:58;27.50;98.40
44271;DHT22;29963;44.594;11.368;2023-06-22T01:13:43;27.50;98.70
44271;DHT22;29963;44.594;11.368;2023-06-22T01:16:16;27.40;98.60
44271;DHT22;29963;44.594;11.368;2023-06-22T01:18:44;27.40;98.50
44271;DHT22;29963;44.594;11.368;2023-06-22T01:21:17;27.40;98.60
44271;DHT22;29963;44.594;11.368;2023-06-22T01:24:15;27.40;98.70
44271;DHT22;29963;44.594;11.368;2023-06-22T01:29:11;27.40;98.00
44271;DHT22;29963;44.594;11.368;2023-06-22T01:31:39;27.20;98.50
44271;DHT22;29963;44.594;11.368;2023-06-22T01:34:07;27.20;98.70
44271;DHT22;29963;44.594;11.368;2023-06-22T01:36:34;27.20;98.90
44271;DHT22;29963;44.594;11.368;2023-06-22T01:39:02;27.20;98.90
44271;DHT22;29963;44.594;11.368;2023-06-22T01:41:30;27.30;99.10
44271;DHT22;29963;44.594;11.368;2023-06-22T01:43:57;27.30;98.80
44271;DHT22;29963;44.594;11.368;2023-06-22T01:46:23;27.30;98.80
44271;DHT22;29963;44.594;11.368;2023-06-22T01:48:52;27.20;98.80
44271;DHT22;29963;44.594;11.368;2023-06-22T01:51:18;27.10;99.20
44271;DHT22;29963;44.594;11.368;2023-06-22T01:53:44;26.90;99.80
44271;DHT22;29963;44.594;11.368;2023-06-22T01:56:11;26.70;99.90
44271;DHT22;29963;44.594;11.368;2023-06-22T01:58:42;26.70;99.90
44271;DHT22;29963;44.594;11.368;2023-06-22T02:01:21;26.80;99.90
44271;DHT22;29963;44.594;11.368;2023-06-22T02:03:53;26.90;99.90
44271;DHT22;29963;44.594;11.368;2023-06-22T02:06:26;26.80;99.60
44271;DHT22;29963;44.594;11.368;2023-06-22T02:08:59;26.60;99.80
44271;DHT22;29963;44.594;11.368;2023-06-22T02:11:26;26.40;99.90
44271;DHT22;29963;44.594;11.368;2023-06-22T02:13:55;26.20;99.90
44271;DHT22;29963;44.594;11.368;2023-06-22T02:16:23;26.00;99.90
44271;DHT22;29963;44.594;11.368;2023-06-22T02:18:49;25.90;99.90
44271;DHT22;29963;44.594;11.368;2023-06-22T02:21:21;25.90;99.90
44271;DHT22;29963;44.594;11.368;2023-06-22T02:23:47;25.80;99.90
44271;DHT22;29963;44.594;11.368;2023-06-22T02:26:13;25.80;99.90
44271;DHT22;29963;44.594;11.368;2023-06-22T02:28:39;25.70;99.90
44271;DHT22;29963;44.594;11.368;2023-06-22T02:31:04;25.60;99.90
44271;DHT22;29963;44.594;11.368;2023-06-22T02:33:30;25.50;99.90
44271;DHT22;29963;44.594;11.368;2023-06-22T02:35:56;25.50;99.90
44271;DHT22;29963;44.594;11.368;2023-06-22T02:38:21;25.40;99.90
44271;DHT22;29963;44.594;11.368;2023-06-22T02:40:50;25.40;99.90
44271;DHT22;29963;44.594;11.368;2023-06-22T02:43:15;25.40;99.90
44271;DHT22;29963;44.594;11.368;2023-06-22T02:45:41;25.40;99.90
44271;DHT22;29963;44.594;11.368;2023-06-22T02:48:07;25.40;99.90
44271;DHT22;29963;44.594;11.368;2023-06-22T02:50:32;25.50;99.90
44271;DHT22;29963;44.594;11.368;2023-06-22T02:52:58;25.50;99.90
44271;DHT22;29963;44.594;11.368;2023-06-22T02:55:27;25.50;99.90
44271;DHT22;29963;44.594;11.368;2023-06-22T02:57:52;25.40;99.90
44271;DHT22;29963;44.594;11.368;2023-06-22T03:00:19;25.40;99.90
44271;DHT22;29963;44.594;11.368;2023-06-22T03:02:49;25.40;99.90
44271;DHT22;29963;44.594;11.368;2023-06-22T03:05:15;24.80;99.90
44271;DHT22;29963;44.594;11.368;2023-06-22T03:07:44;25.30;99.90
44271;DHT22;29963;44.594;11.368;2023-06-22T03:10:10;25.30;99.90
44271;DHT22;29963;44.594;11.368;2023-06-22T03:12:40;25.30;99.90
44271;DHT22;29963;44.594;11.368;2023-06-22T03:15:07;25.20;99.90
44271;DHT22;29963;44.594;11.368;2023-06-22T03:17:34;25.30;99.90
44271;DHT22;29963;44.594;11.368;2023-06-22T03:20:01;25.20;99.90
44271;DHT22;29963;44.594;11.368;2023-06-22T03:22:27;25.30;99.90
44271;DHT22;29963;44.594;11.368;2023-06-22T03:24:53;25.20;99.90
44271;DHT22;29963;44.594;11.368;2023-06-22T03:27:18;25.20;99.90
44271;DHT22;29963;44.594;11.368;2023-06-22T03:29:44;25.20;99.90
44271;DHT22;29963;44.594;11.368;2023-06-22T03:32:10;25.10;99.90
44271;DHT22;29963;44.594;11.368;2023-06-22T03:34:36;25.10;99.90
44271;DHT22;29963;44.594;11.368;2023-06-22T03:37:02;25.00;99.90
44271;DHT22;29963;44.594;11.368;2023-06-22T03:39:28;25.00;99.90
44271;DHT22;29963;44.594;11.368;2023-06-22T03:41:54;24.90;99.90
44271;DHT22;29963;44.594;11.368;2023-06-22T03:44:19;24.90;99.90
44271;DHT22;29963;44.594;11.368;2023-06-22T03:46:45;24.90;99.90
44271;DHT22;29963;44.594;11.368;2023-06-22T03:49:11;24.90;99.90
44271;DHT22;29963;44.594;11.368;2023-06-22T03:51:37;24.80;99.90
44271;DHT22;29963;44.594;11.368;2023-06-22T03:54:02;24.80;99.90
44271;DHT22;29963;44.594;11.368;2023-06-22T03:56:28;24.80;99.90
44271;DHT22;29963;44.594;11.368;2023-06-22T03:58:53;24.70;99.90
44271;DHT22;29963;44.594;11.368;2023-06-22T04:01:19;24.70;99.90
44271;DHT22;29963;44.594;11.368;2023-06-22T04:03:45;24.60;99.90
44271;DHT22;29963;44.594;11.368;2023-06-22T04:06:13;24.60;99.90
44271;DHT22;29963;44.594;11.368;2023-06-22T04:08:39;24.70;99.90
44271;DHT22;29963;44.594;11.368;2023-06-22T04:11:04;24.60;99.90
44271;DHT22;29963;44.594;11.368;2023-06-22T04:13:30;24.50;99.90
44271;DHT22;29963;44.594;11.368;2023-06-22T04:15:56;24.50;99.90
44271;DHT22;29963;44.594;11.368;2023-06-22T04:18:22;24.50;99.90
44271;DHT22;29963;44.594;11.368;2023-06-22T04:20:47;24.50;99.90
44271;DHT22;29963;44.594;11.368;2023-06-22T04:23:13;24.50;99.90
44271;DHT22;29963;44.594;11.368;2023-06-22T04:25:39;24.60;99.90
44271;DHT22;29963;44.594;11.368;2023-06-22T04:28:05;24.60;99.90
44271;DHT22;29963;44.594;11.368;2023-06-22T04:30:32;24.70;99.90
44271;DHT22;29963;44.594;11.368;2023-06-22T04:32:58;24.70;99.90
44271;DHT22;29963;44.594;11.368;2023-06-22T04:35:24;24.80;99.90
44271;DHT22;29963;44.594;11.368;2023-06-22T04:37:50;24.90;99.90
44271;DHT22;29963;44.594;11.368;2023-06-22T04:40:23;24.90;99.90
44271;DHT22;29963;44.594;11.368;2023-06-22T04:42:52;25.00;99.90
44271;DHT22;29963;44.594;11.368;2023-06-22T04:45:19;25.10;99.90
44271;DHT22;29963;44.594;11.368;2023-06-22T04:47:45;25.00;99.90
44271;DHT22;29963;44.594;11.368;2023-06-22T04:50:12;25.00;99.90
44271;DHT22;29963;44.594;11.368;2023-06-22T04:52:38;25.00;99.90
44271;DHT22;29963;44.594;11.368;2023-06-22T04:55:04;24.90;99.90
44271;DHT22;29963;44.594;11.368;2023-06-22T04:57:30;24.90;99.90
44271;DHT22;29963;44.594;11.368;2023-06-22T05:00:01;24.90;99.90
44271;DHT22;29963;44.594;11.368;2023-06-22T05:02:27;24.90;99.90
44271;DHT22;29963;44.594;11.368;2023-06-22T05:04:57;25.00;99.90
44271;DHT22;29963;44.594;11.368;2023-06-22T05:07:23;25.00;99.90
44271;DHT22;29963;44.594;11.368;2023-06-22T05:09:51;25.00;99.90
44271;DHT22;29963;44.594;11.368;2023-06-22T05:12:16;25.00;99.90
44271;DHT22;29963;44.594;11.368;2023-06-22T05:14:42;25.10;99.90
44271;DHT22;29963;44.594;11.368;2023-06-22T05:17:07;25.20;99.90
44271;DHT22;29963;44.594;11.368;2023-06-22T05:19:39;25.20;99.90
44271;DHT22;29963;44.594;11.368;2023-06-22T05:22:04;25.20;99.90
44271;DHT22;29963;44.594;11.368;2023-06-22T05:24:31;25.30;99.90
44271;DHT22;29963;44.594;11.368;2023-06-22T05:26:57;25.40;99.90
44271;DHT22;29963;44.594;11.368;2023-06-22T05:29:23;25.30;99.90
44271;DHT22;29963;44.594;11.368;2023-06-22T05:31:49;25.30;99.90
44271;DHT22;29963;44.594;11.368;2023-06-22T05:34:15;25.40;99.90
44271;DHT22;29963;44.594;11.368;2023-06-22T05:36:40;25.40;99.90
44271;DHT22;29963;44.594;11.368;2023-06-22T05:39:13;25.40;99.90
44271;DHT22;29963;44.594;11.368;2023-06-22T05:41:42;25.40;99.90
44271;DHT22;29963;44.594;11.368;2023-06-22T05:44:11;25.50;99.90
44271;DHT22;29963;44.594;11.368;2023-06-22T05:46:39;25.60;99.90
44271;DHT22;29963;44.594;11.368;2023-06-22T05:49:05;25.50;99.90
44271;DHT22;29963;44.594;11.368;2023-06-22T05:51:31;25.60;99.90
44271;DHT22;29963;44.594;11.368;2023-06-22T05:53:56;25.60;99.90
44271;DHT22;29963;44.594;11.368;2023-06-22T05:56:22;25.70;99.90
44271;DHT22;29963;44.594;11.368;2023-06-22T05:58:47;25.80;99.90
44271;DHT22;29963;44.594;11.368;2023-06-22T06:01:13;25.90;99.90
44271;DHT22;29963;44.594;11.368;2023-06-22T06:03:41;26.00;99.90
44271;DHT22;29963;44.594;11.368;2023-06-22T06:06:09;26.00;99.90
44271;DHT22;29963;44.594;11.368;2023-06-22T06:08:37;26.00;99.90
44271;DHT22;29963;44.594;11.368;2023-06-22T06:11:02;26.10;99.90
44271;DHT22;29963;44.594;11.368;2023-06-22T06:13:28;26.20;99.90
44271;DHT22;29963;44.594;11.368;2023-06-22T06:15:54;26.30;99.90
44271;DHT22;29963;44.594;11.368;2023-06-22T06:18:22;26.30;99.90
44271;DHT22;29963;44.594;11.368;2023-06-22T06:20:48;26.30;99.90
44271;DHT22;29963;44.594;11.368;2023-06-22T06:23:14;26.40;99.90
44271;DHT22;29963;44.594;11.368;2023-06-22T06:25:39;26.40;99.90
44271;DHT22;29963;44.594;11.368;2023-06-22T06:28:05;26.50;99.90
44271;DHT22;29963;44.594;11.368;2023-06-22T06:30:31;26.50;99.90
44271;DHT22;29963;44.594;11.368;2023-06-22T06:32:57;26.50;99.90
44271;DHT22;29963;44.594;11.368;2023-06-22T06:35:22;26.50;99.90
44271;DHT22;29963;44.594;11.368;2023-06-22T06:37:50;26.40;99.90
44271;DHT22;29963;44.594;11.368;2023-06-22T06:40:17;26.40;99.90
44271;DHT22;29963;44.594;11.368;2023-06-22T06:42:47;26.30;99.90
44271;DHT22;29963;44.594;11.368;2023-06-22T06:47:42;26.40;99.90
44271;DHT22;29963;44.594;11.368;2023-06-22T06:50:09;26.40;99.90
44271;DHT22;29963;44.594;11.368;2023-06-22T06:52:35;26.50;99.90
44271;DHT22;29963;44.594;11.368;2023-06-22T06:55:01;26.60;99.90
44271;DHT22;29963;44.594;11.368;2023-06-22T06:57:27;26.60;99.90
44271;DHT22;29963;44.594;11.368;2023-06-22T06:59:55;26.70;99.90
44271;DHT22;29963;44.594;11.368;2023-06-22T07:02:21;26.70;99.90
44271;DHT22;29963;44.594;11.368;2023-06-22T07:04:47;26.70;99.90
44271;DHT22;29963;44.594;11.368;2023-06-22T07:07:13;26.80;99.90
44271;DHT22;29963;44.594;11.368;2023-06-22T07:09:39;26.80;99.90
44271;DHT22;29963;44.594;11.368;2023-06-22T07:12:05;26.80;99.90
44271;DHT22;29963;44.594;11.368;2023-06-22T07:14:31;26.90;99.90
44271;DHT22;29963;44.594;11.368;2023-06-22T07:16:57;27.00;99.90
44271;DHT22;29963;44.594;11.368;2023-06-22T07:19:27;27.00;99.90
44271;DHT22;29963;44.594;11.368;2023-06-22T07:21:54;27.10;99.90
44271;DHT22;29963;44.594;11.368;2023-06-22T07:24:20;27.20;99.90
44271;DHT22;29963;44.594;11.368;2023-06-22T07:26:47;27.30;99.90
44271;DHT22;29963;44.594;11.368;2023-06-22T07:29:20;27.40;99.90
44271;DHT22;29963;44.594;11.368;2023-06-22T07:31:47;27.40;99.90
44271;DHT22;29963;44.594;11.368;2023-06-22T07:34:13;27.40;99.90
44271;DHT22;29963;44.594;11.368;2023-06-22T07:36:39;27.50;99.90
44271;DHT22;29963;44.594;11.368;2023-06-22T07:39:04;27.50;99.90
44271;DHT22;29963;44.594;11.368;2023-06-22T07:41:30;27.50;99.90
44271;DHT22;29963;44.594;11.368;2023-06-22T07:43:56;27.50;99.90
44271;DHT22;29963;44.594;11.368;2023-06-22T07:46:23;27.70;99.90
44271;DHT22;29963;44.594;11.368;2023-06-22T07:48:48;27.80;99.90
44271;DHT22;29963;44.594;11.368;2023-06-22T07:51:14;28.00;99.90
44271;DHT22;29963;44.594;11.368;2023-06-22T07:53:41;28.00;99.90
44271;DHT22;29963;44.594;11.368;2023-06-22T07:56:07;28.00;99.90
44271;DHT22;29963;44.594;11.368;2023-06-22T07:58:33;28.10;99.90
44271;DHT22;29963;44.594;11.368;2023-06-22T08:00:59;28.20;99.90
44271;DHT22;29963;44.594;11.368;2023-06-22T08:03:24;28.20;99.90
44271;DHT22;29963;44.594;11.368;2023-06-22T08:05:50;28.30;99.90
44271;DHT22;29963;44.594;11.368;2023-06-22T08:08:16;28.30;99.90
44271;DHT22;29963;44.594;11.368;2023-06-22T08:10:42;28.40;99.90
44271;DHT22;29963;44.594;11.368;2023-06-22T08:13:08;28.50;99.90
44271;DHT22;29963;44.594;11.368;2023-06-22T08:15:33;28.50;99.90
44271;DHT22;29963;44.594;11.368;2023-06-22T08:17:59;28.60;99.90
44271;DHT22;29963;44.594;11.368;2023-06-22T08:20:26;28.70;99.90
44271;DHT22;29963;44.594;11.368;2023-06-22T08:22:53;28.90;99.90
44271;DHT22;29963;44.594;11.368;2023-06-22T08:25:19;28.90;99.90
44271;DHT22;29963;44.594;11.368;2023-06-22T08:27:46;29.00;99.90
44271;DHT22;29963;44.594;11.368;2023-06-22T08:30:16;29.10;99.90
44271;DHT22;29963;44.594;11.368;2023-06-22T08:32:42;29.10;99.90
44271;DHT22;29963;44.594;11.368;2023-06-22T08:35:08;29.20;99.90
44271;DHT22;29963;44.594;11.368;2023-06-22T08:37:34;29.20;99.90
44271;DHT22;29963;44.594;11.368;2023-06-22T08:40:03;29.30;99.90
44271;DHT22;29963;44.594;11.368;2023-06-22T08:42:33;29.40;99.90
44271;DHT22;29963;44.594;11.368;2023-06-22T08:44:59;29.50;99.90
44271;DHT22;29963;44.594;11.368;2023-06-22T08:47:24;29.60;99.90
44271;DHT22;29963;44.594;11.368;2023-06-22T08:49:50;29.60;99.90
44271;DHT22;29963;44.594;11.368;2023-06-22T08:52:18;29.70;99.90
44271;DHT22;29963;44.594;11.368;2023-06-22T08:54:45;29.80;99.90
44271;DHT22;29963;44.594;11.368;2023-06-22T08:57:11;29.90;99.90
44271;DHT22;29963;44.594;11.368;2023-06-22T08:59:37;30.00;99.90
44271;DHT22;29963;44.594;11.368;2023-06-22T11:01:09;31.50;93.40
44271;DHT22;29963;44.594;11.368;2023-06-22T11:03:35;31.50;91.90
44271;DHT22;29963;44.594;11.368;2023-06-22T11:06:01;31.40;92.50
44271;DHT22;29963;44.594;11.368;2023-06-22T11:08:26;31.50;93.00
44271;DHT22;29963;44.594;11.368;2023-06-22T11:10:52;31.50;94.00
44271;DHT22;29963;44.594;11.368;2023-06-22T11:13:18;31.60;94.60
44271;DHT22;29963;44.594;11.368;2023-06-22T11:15:43;31.70;94.80
44271;DHT22;29963;44.594;11.368;2023-06-22T11:18:09;31.70;94.50
44271;DHT22;29963;44.594;11.368;2023-06-22T11:20:35;31.80;94.00
44271;DHT22;29963;44.594;11.368;2023-06-22T11:23:04;31.90;94.30
44271;DHT22;29963;44.594;11.368;2023-06-22T11:25:31;31.90;93.80
44271;DHT22;29963;44.594;11.368;2023-06-22T11:27:57;31.90;93.40
44271;DHT22;29963;44.594;11.368;2023-06-22T11:30:23;32.10;93.70
44271;DHT22;29963;44.594;11.368;2023-06-22T11:32:48;32.00;93.00
44271;DHT22;29963;44.594;11.368;2023-06-22T11:35:14;32.10;93.40
44271;DHT22;29963;44.594;11.368;2023-06-22T11:37:39;32.20;93.40
44271;DHT22;29963;44.594;11.368;2023-06-22T11:40:06;32.20;93.40
44271;DHT22;29963;44.594;11.368;2023-06-22T11:42:34;32.20;93.60
44271;DHT22;29963;44.594;11.368;2023-06-22T11:45:00;32.30;93.90
44271;DHT22;29963;44.594;11.368;2023-06-22T11:47:30;32.30;93.80
44271;DHT22;29963;44.594;11.368;2023-06-22T11:49:56;32.30;92.90
44271;DHT22;29963;44.594;11.368;2023-06-22T11:52:21;32.30;93.10
44271;DHT22;29963;44.594;11.368;2023-06-22T11:54:47;32.30;92.60
44271;DHT22;29963;44.594;11.368;2023-06-22T11:57:13;32.30;92.60
44271;DHT22;29963;44.594;11.368;2023-06-22T11:59:38;32.40;92.60
44271;DHT22;29963;44.594;11.368;2023-06-22T12:02:04;32.40;92.70
44271;DHT22;29963;44.594;11.368;2023-06-22T12:04:31;32.50;92.90
44271;DHT22;29963;44.594;11.368;2023-06-22T12:06:56;32.50;93.20
44271;DHT22;29963;44.594;11.368;2023-06-22T12:09:23;32.50;90.80
44271;DHT22;29963;44.594;11.368;2023-06-22T12:11:49;32.60;90.50
44271;DHT22;29963;44.594;11.368;2023-06-22T12:14:15;32.60;90.10
44271;DHT22;29963;44.594;11.368;2023-06-22T12:16:40;32.60;90.10
44271;DHT22;29963;44.594;11.368;2023-06-22T12:19:06;32.70;91.00
44271;DHT22;29963;44.594;11.368;2023-06-22T12:21:31;32.80;91.20
44271;DHT22;29963;44.594;11.368;2023-06-22T12:23:57;32.80;91.00
44271;DHT22;29963;44.594;11.368;2023-06-22T12:26:23;33.00;90.90
44271;DHT22;29963;44.594;11.368;2023-06-22T12:28:48;33.00;91.00
44271;DHT22;29963;44.594;11.368;2023-06-22T12:31:14;33.10;90.70
44271;DHT22;29963;44.594;11.368;2023-06-22T12:33:40;33.20;90.50
44271;DHT22;29963;44.594;11.368;2023-06-22T12:36:06;33.20;89.20
44271;DHT22;29963;44.594;11.368;2023-06-22T12:38:31;33.20;90.00
44271;DHT22;29963;44.594;11.368;2023-06-22T12:40:57;33.20;90.20
44271;DHT22;29963;44.594;11.368;2023-06-22T12:43:22;33.20;90.00
44271;DHT22;29963;44.594;11.368;2023-06-22T12:45:48;33.30;88.70
44271;DHT22;29963;44.594;11.368;2023-06-22T12:48:14;33.30;87.30
44271;DHT22;29963;44.594;11.368;2023-06-22T12:50:39;33.50;85.30
44271;DHT22;29963;44.594;11.368;2023-06-22T12:53:05;33.50;86.00
44271;DHT22;29963;44.594;11.368;2023-06-22T12:55:31;33.60;85.50
44271;DHT22;29963;44.594;11.368;2023-06-22T12:57:57;33.70;84.20
44271;DHT22;29963;44.594;11.368;2023-06-22T13:00:23;33.70;84.80
44271;DHT22;29963;44.594;11.368;2023-06-22T13:02:49;33.70;84.50
44271;DHT22;29963;44.594;11.368;2023-06-22T13:05:15;33.80;85.60
44271;DHT22;29963;44.594;11.368;2023-06-22T13:07:40;33.90;84.00
44271;DHT22;29963;44.594;11.368;2023-06-22T13:10:08;33.90;85.20
44271;DHT22;29963;44.594;11.368;2023-06-22T13:12:34;34.00;83.90
44271;DHT22;29963;44.594;11.368;2023-06-22T13:14:59;34.10;83.00
44271;DHT22;29963;44.594;11.368;2023-06-22T13:17:25;34.10;84.20
44271;DHT22;29963;44.594;11.368;2023-06-22T13:19:50;34.20;84.50
44271;DHT22;29963;44.594;11.368;2023-06-22T13:22:29;34.20;83.50
44271;DHT22;29963;44.594;11.368;2023-06-22T13:24:55;34.30;83.40
44271;DHT22;29963;44.594;11.368;2023-06-22T13:27:21;34.30;82.20
44271;DHT22;29963;44.594;11.368;2023-06-22T13:29:47;34.40;82.80
44271;DHT22;29963;44.594;11.368;2023-06-22T13:32:13;34.40;82.60
44271;DHT22;29963;44.594;11.368;2023-06-22T13:34:38;34.40;81.70
44271;DHT22;29963;44.594;11.368;2023-06-22T13:37:04;34.50;81.70
44271;DHT22;29963;44.594;11.368;2023-06-22T13:41:57;34.50;81.30
44271;DHT22;29963;44.594;11.368;2023-06-22T13:44:23;34.60;81.30
44271;DHT22;29963;44.594;11.368;2023-06-22T13:46:48;34.60;81.20
44271;DHT22;29963;44.594;11.368;2023-06-22T13:49:14;34.60;80.60
44271;DHT22;29963;44.594;11.368;2023-06-22T13:51:40;34.70;79.90
44271;DHT22;29963;44.594;11.368;2023-06-22T13:54:05;34.70;80.50
44271;DHT22;29963;44.594;11.368;2023-06-22T13:56:32;34.80;76.70
44271;DHT22;29963;44.594;11.368;2023-06-22T13:58:58;34.80;77.30
44271;DHT22;29963;44.594;11.368;2023-06-22T14:01:23;34.90;76.30
44271;DHT22;29963;44.594;11.368;2023-06-22T14:03:49;35.00;76.70
44271;DHT22;29963;44.594;11.368;2023-06-22T14:06:15;35.00;74.80
44271;DHT22;29963;44.594;11.368;2023-06-22T14:08:40;35.10;76.10
44271;DHT22;29963;44.594;11.368;2023-06-22T14:11:06;35.10;76.30
44271;DHT22;29963;44.594;11.368;2023-06-22T14:13:31;35.20;74.80
44271;DHT22;29963;44.594;11.368;2023-06-22T14:15:57;35.20;73.80
44271;DHT22;29963;44.594;11.368;2023-06-22T14:18:23;35.30;73.50
44271;DHT22;29963;44.594;11.368;2023-06-22T14:20:49;35.30;73.00
44271;DHT22;29963;44.594;11.368;2023-06-22T14:23:14;35.40;71.30
44271;DHT22;29963;44.594;11.368;2023-06-22T14:25:40;35.40;70.60
44271;DHT22;29963;44.594;11.368;2023-06-22T14:28:06;35.50;71.20
44271;DHT22;29963;44.594;11.368;2023-06-22T14:30:32;35.50;72.20
44271;DHT22;29963;44.594;11.368;2023-06-22T14:32:57;35.50;71.30
44271;DHT22;29963;44.594;11.368;2023-06-22T14:35:23;35.50;71.20
44271;DHT22;29963;44.594;11.368;2023-06-22T14:37:50;35.50;71.80
44271;DHT22;29963;44.594;11.368;2023-06-22T14:40:15;35.40;73.10
44271;DHT22;29963;44.594;11.368;2023-06-22T14:42:41;35.30;72.20
44271;DHT22;29963;44.594;11.368;2023-06-22T14:45:07;35.20;71.80
44271;DHT22;29963;44.594;11.368;2023-06-22T14:47:33;35.20;72.30
44271;DHT22;29963;44.594;11.368;2023-06-22T14:49:58;35.10;73.70
44271;DHT22;29963;44.594;11.368;2023-06-22T14:52:26;35.10;75.40
44271;DHT22;29963;44.594;11.368;2023-06-22T14:54:52;35.00;76.00
44271;DHT22;29963;44.594;11.368;2023-06-22T14:57:18;35.00;77.00
44271;DHT22;29963;44.594;11.368;2023-06-22T14:59:46;35.00;76.80
44271;DHT22;29963;44.594;11.368;2023-06-22T15:02:12;35.00;77.40
44271;DHT22;29963;44.594;11.368;2023-06-22T15:04:38;35.10;96.50
44271;DHT22;29963;44.594;11.368;2023-06-22T15:07:04;34.60;97.20
44271;DHT22;29963;44.594;11.368;2023-06-22T15:19:15;34.80;99.50
44271;DHT22;29963;44.594;11.368;2023-06-22T15:24:07;34.90;94.30
44271;DHT22;29963;44.594;11.368;2023-06-22T15:26:33;34.70;97.40
44271;DHT22;29963;44.594;11.368;2023-06-22T15:28:59;35.10;98.60
44271;DHT22;29963;44.594;11.368;2023-06-22T15:31:26;34.70;99.20
44271;DHT22;29963;44.594;11.368;2023-06-22T15:36:18;34.40;93.20
44271;DHT22;29963;44.594;11.368;2023-06-22T15:41:13;34.50;99.90
44271;DHT22;29963;44.594;11.368;2023-06-22T15:43:38;34.40;99.90
44271;DHT22;29963;44.594;11.368;2023-06-22T15:48:30;34.50;90.20
44271;DHT22;29963;44.594;11.368;2023-06-22T15:53:22;34.20;98.30
44271;DHT22;29963;44.594;11.368;2023-06-22T15:55:47;33.90;99.90
44271;DHT22;29963;44.594;11.368;2023-06-22T16:03:07;34.00;99.90
44271;DHT22;29963;44.594;11.368;2023-06-22T16:05:33;34.10;90.90
44271;DHT22;29963;44.594;11.368;2023-06-22T16:08:02;34.10;91.00
44271;DHT22;29963;44.594;11.368;2023-06-22T16:10:28;34.00;91.10
44271;DHT22;29963;44.594;11.368;2023-06-22T16:12:53;34.00;91.20
44271;DHT22;29963;44.594;11.368;2023-06-22T16:15:19;34.00;91.30
44271;DHT22;29963;44.594;11.368;2023-06-22T16:17:45;33.90;91.20
44271;DHT22;29963;44.594;11.368;2023-06-22T16:20:11;33.90;91.20
44271;DHT22;29963;44.594;11.368;2023-06-22T16:22:37;33.80;91.30
44271;DHT22;29963;44.594;11.368;2023-06-22T16:25:02;33.80;91.60
44271;DHT22;29963;44.594;11.368;2023-06-22T16:27:29;33.70;91.70
44271;DHT22;29963;44.594;11.368;2023-06-22T16:29:56;33.70;91.90
44271;DHT22;29963;44.594;11.368;2023-06-22T16:32:22;33.70;92.10
44271;DHT22;29963;44.594;11.368;2023-06-22T16:34:47;33.70;91.80
44271;DHT22;29963;44.594;11.368;2023-06-22T16:37:13;33.60;91.70
44271;DHT22;29963;44.594;11.368;2023-06-22T16:39:39;33.60;91.30
44271;DHT22;29963;44.594;11.368;2023-06-22T16:42:05;33.50;91.60
44271;DHT22;29963;44.594;11.368;2023-06-22T16:44:30;33.50;91.40
44271;DHT22;29963;44.594;11.368;2023-06-22T16:47:01;33.40;91.80
44271;DHT22;29963;44.594;11.368;2023-06-22T16:49:27;33.40;91.90
44271;DHT22;29963;44.594;11.368;2023-06-22T16:51:53;33.40;92.20
44271;DHT22;29963;44.594;11.368;2023-06-22T16:54:19;33.30;92.40
44271;DHT22;29963;44.594;11.368;2023-06-22T16:56:46;33.30;92.60
44271;DHT22;29963;44.594;11.368;2023-06-22T16:59:11;33.30;92.80
44271;DHT22;29963;44.594;11.368;2023-06-22T17:01:48;33.20;92.80
44271;DHT22;29963;44.594;11.368;2023-06-22T17:04:16;33.20;92.50
44271;DHT22;29963;44.594;11.368;2023-06-22T17:06:53;33.10;91.30
44271;DHT22;29963;44.594;11.368;2023-06-22T17:09:22;33.10;91.70
44271;DHT22;29963;44.594;11.368;2023-06-22T17:11:51;33.10;91.60
44271;DHT22;29963;44.594;11.368;2023-06-22T17:14:18;33.10;91.60
44271;DHT22;29963;44.594;11.368;2023-06-22T17:16:45;33.00;91.50
44271;DHT22;29963;44.594;11.368;2023-06-22T17:19:12;33.00;91.40
44271;DHT22;29963;44.594;11.368;2023-06-22T17:21:38;32.90;91.50
44271;DHT22;29963;44.594;11.368;2023-06-22T17:24:05;32.90;91.70
44271;DHT22;29963;44.594;11.368;2023-06-22T17:26:30;32.80;91.80
44271;DHT22;29963;44.594;11.368;2023-06-22T17:28:57;32.80;92.00
44271;DHT22;29963;44.594;11.368;2023-06-22T17:31:41;32.80;92.20
44271;DHT22;29963;44.594;11.368;2023-06-22T17:34:16;32.80;92.30
44271;DHT22;29963;44.594;11.368;2023-06-22T17:36:43;32.70;92.50
44271;DHT22;29963;44.594;11.368;2023-06-22T17:39:13;32.70;92.70
44271;DHT22;29963;44.594;11.368;2023-06-22T17:41:39;32.60;92.90
44271;DHT22;29963;44.594;11.368;2023-06-22T17:44:06;32.60;93.10
44271;DHT22;29963;44.594;11.368;2023-06-22T17:46:36;32.60;93.30